sensor_id;sensor_type;location;lat;lon;timestamp;pressure;altitude;pressure_sealevel;temperature;humidity
25855;BME280;13680;49.936;11.344;2023-12-07T00:01:04;96839.91;;;3.54;84.54
25855;BME280;13680;49.936;11.344;2023-12-07T00:03:30;96844.13;;;3.50;84.58
25855;BME280;13680;49.936;11.344;2023-12-07T00:05:55;96842.53;;;3.49;84.82
25855;BME280;13680;49.936;11.344;2023-12-07T00:08:20;96837.78;;;3.56;84.41
25855;BME280;13680;49.936;11.344;2023-12-07T00:10:46;96848.13;;;3.52;84.65
25855;BME280;13680;49.936;11.344;2023-12-07T00:13:11;96841.94;;;3.47;84.48
25855;BME280;13680;49.936;11.344;2023-12-07T00:15:36;96849.19;;;3.51;84.90
25855;BME280;13680;49.936;11.344;2023-12-07T00:18:02;96846.47;;;3.46;84.96
25855;BME280;13680;49.936;11.344;2023-12-07T00:20:29;96847.88;;;3.54;84.66
25855;BME280;13680;49.936;11.344;2023-12-07T00:22:54;96856.19;;;3.35;84.87
25855;BME280;13680;49.936;11.344;2023-12-07T00:25:21;96847.75;;;3.38;84.50
25855;BME280;13680;49.936;11.344;2023-12-07T00:27:46;96850.25;;;3.50;84.51
25855;BME280;13680;49.936;11.344;2023-12-07T00:30:12;96855.28;;;3.52;84.60
25855;BME280;13680;49.936;11.344;2023-12-07T00:32:37;96853.16;;;3.49;84.56
25855;BME280;13680;49.936;11.344;2023-12-07T00:35:03;96857.16;;;3.51;84.62
25855;BME280;13680;49.936;11.344;2023-12-07T00:37:28;96846.84;;;3.55;84.12
25855;BME280;13680;49.936;11.344;2023-12-07T00:39:54;96858.78;;;3.52;84.25
25855;BME280;13680;49.936;11.344;2023-12-07T00:42:19;96854.16;;;3.42;84.37
25855;BME280;13680;49.936;11.344;2023-12-07T00:44:44;96858.47;;;3.49;84.31
25855;BME280;13680;49.936;11.344;2023-12-07T00:47:10;96864.53;;;3.44;84.52
25855;BME280;13680;49.936;11.344;2023-12-07T00:49:39;96858.41;;;3.43;84.93
25855;BME280;13680;49.936;11.344;2023-12-07T00:52:06;96866.88;;;3.40;85.00
25855;BME280;13680;49.936;11.344;2023-12-07T00:54:31;96866.44;;;3.49;84.79
25855;BME280;13680;49.936;11.344;2023-12-07T00:56:57;96867.81;;;3.51;84.75
25855;BME280;13680;49.936;11.344;2023-12-07T00:59:23;96864.09;;;3.52;84.55
25855;BME280;13680;49.936;11.344;2023-12-07T01:01:48;96866.19;;;3.50;84.80
25855;BME280;13680;49.936;11.344;2023-12-07T01:04:13;96871.50;;;3.50;84.75
25855;BME280;13680;49.936;11.344;2023-12-07T01:06:39;96877.03;;;3.43;84.78
25855;BME280;13680;49.936;11.344;2023-12-07T01:09:04;96867.50;;;3.48;84.66
25855;BME280;13680;49.936;11.344;2023-12-07T01:11:29;96887.16;;;3.47;84.84
25855;BME280;13680;49.936;11.344;2023-12-07T01:13:55;96887.16;;;3.47;84.77
25855;BME280;13680;49.936;11.344;2023-12-07T01:16:20;96880.72;;;3.42;84.84
25855;BME280;13680;49.936;11.344;2023-12-07T01:18:45;96890.81;;;3.40;85.19
25855;BME280;13680;49.936;11.344;2023-12-07T01:21:10;96889.22;;;3.39;85.04
25855;BME280;13680;49.936;11.344;2023-12-07T01:23:37;96895.69;;;3.49;84.86
25855;BME280;13680;49.936;11.344;2023-12-07T01:26:02;96900.44;;;3.47;85.06
25855;BME280;13680;49.936;11.344;2023-12-07T01:28:28;96905.56;;;3.53;84.92
25855;BME280;13680;49.936;11.344;2023-12-07T01:30:53;96906.56;;;3.47;85.00
25855;BME280;13680;49.936;11.344;2023-12-07T01:33:19;96909.78;;;3.49;84.82
25855;BME280;13680;49.936;11.344;2023-12-07T01:35:45;96914.31;;;3.49;85.00
25855;BME280;13680;49.936;11.344;2023-12-07T01:38:10;96913.25;;;3.50;85.00
25855;BME280;13680;49.936;11.344;2023-12-07T01:40:35;96912.75;;;3.53;84.77
25855;BME280;13680;49.936;11.344;2023-12-07T01:43:01;96915.44;;;3.58;84.88
25855;BME280;13680;49.936;11.344;2023-12-07T01:45:26;96914.50;;;3.42;85.16
25855;BME280;13680;49.936;11.344;2023-12-07T01:47:52;96926.53;;;3.50;84.93
25855;BME280;13680;49.936;11.344;2023-12-07T01:50:19;96925.00;;;3.54;84.97
25855;BME280;13680;49.936;11.344;2023-12-07T01:52:49;96929.31;;;3.60;84.63
25855;BME280;13680;49.936;11.344;2023-12-07T01:55:16;96931.88;;;3.50;84.76
25855;BME280;13680;49.936;11.344;2023-12-07T01:57:44;96938.47;;;3.47;84.76
25855;BME280;13680;49.936;11.344;2023-12-07T02:00:10;96933.34;;;3.40;85.13
25855;BME280;13680;49.936;11.344;2023-12-07T02:02:36;96937.66;;;3.47;85.12
25855;BME280;13680;49.936;11.344;2023-12-07T02:05:01;96935.19;;;3.40;85.47
25855;BME280;13680;49.936;11.344;2023-12-07T02:07:27;96935.81;;;3.25;85.59
25855;BME280;13680;49.936;11.344;2023-12-07T02:09:53;96937.88;;;3.18;86.82
25855;BME280;13680;49.936;11.344;2023-12-07T02:12:19;96936.63;;;3.48;85.30
25855;BME280;13680;49.936;11.344;2023-12-07T02:14:45;96937.13;;;3.44;85.28
25855;BME280;13680;49.936;11.344;2023-12-07T02:17:35;96940.31;;;3.47;84.92
25855;BME280;13680;49.936;11.344;2023-12-07T02:20:16;96943.44;;;3.38;85.53
25855;BME280;13680;49.936;11.344;2023-12-07T02:22:52;96945.28;;;3.16;86.39
25855;BME280;13680;49.936;11.344;2023-12-07T02:25:24;96933.78;;;3.32;85.67
25855;BME280;13680;49.936;11.344;2023-12-07T02:27:50;96946.50;;;3.30;85.90
25855;BME280;13680;49.936;11.344;2023-12-07T02:30:15;96939.00;;;3.05;86.39
25855;BME280;13680;49.936;11.344;2023-12-07T02:32:43;96952.31;;;3.27;85.80
25855;BME280;13680;49.936;11.344;2023-12-07T02:35:10;96949.09;;;3.25;86.03
25855;BME280;13680;49.936;11.344;2023-12-07T02:37:42;96946.03;;;3.33;85.31
25855;BME280;13680;49.936;11.344;2023-12-07T02:40:08;96939.72;;;3.17;85.67
25855;BME280;13680;49.936;11.344;2023-12-07T02:42:38;96939.16;;;3.37;85.06
25855;BME280;13680;49.936;11.344;2023-12-07T02:45:06;96941.19;;;3.30;85.21
25855;BME280;13680;49.936;11.344;2023-12-07T02:47:33;96946.16;;;3.43;84.78
25855;BME280;13680;49.936;11.344;2023-12-07T02:49:58;96939.22;;;3.20;85.18
25855;BME280;13680;49.936;11.344;2023-12-07T02:52:23;96939.56;;;3.29;84.98
25855;BME280;13680;49.936;11.344;2023-12-07T02:54:49;96939.41;;;3.36;85.04
25855;BME280;13680;49.936;11.344;2023-12-07T02:57:14;96940.81;;;3.43;84.58
25855;BME280;13680;49.936;11.344;2023-12-07T02:59:40;96950.84;;;3.36;84.73
25855;BME280;13680;49.936;11.344;2023-12-07T03:02:05;96946.63;;;3.40;84.39
25855;BME280;13680;49.936;11.344;2023-12-07T03:04:31;96947.13;;;3.37;84.65
25855;BME280;13680;49.936;11.344;2023-12-07T03:06:56;96951.16;;;3.40;84.55
25855;BME280;13680;49.936;11.344;2023-12-07T03:09:21;96946.88;;;3.39;84.54
25855;BME280;13680;49.936;11.344;2023-12-07T03:11:47;96957.19;;;3.35;84.34
25855;BME280;13680;49.936;11.344;2023-12-07T03:14:12;96958.56;;;3.38;84.53
25855;BME280;13680;49.936;11.344;2023-12-07T03:16:38;96949.72;;;3.32;84.41
25855;BME280;13680;49.936;11.344;2023-12-07T03:19:04;96954.84;;;3.39;84.44
25855;BME280;13680;49.936;11.344;2023-12-07T03:21:29;96957.75;;;3.37;84.36
25855;BME280;13680;49.936;11.344;2023-12-07T03:23:54;96963.09;;;3.37;84.29
25855;BME280;13680;49.936;11.344;2023-12-07T03:26:19;96964.19;;;3.41;84.07
25855;BME280;13680;49.936;11.344;2023-12-07T03:28:45;96961.47;;;3.36;84.20
25855;BME280;13680;49.936;11.344;2023-12-07T03:31:10;96966.31;;;3.39;83.78
25855;BME280;13680;49.936;11.344;2023-12-07T03:33:36;96965.81;;;3.42;83.72
25855;BME280;13680;49.936;11.344;2023-12-07T03:36:01;96970.00;;;3.38;83.82
25855;BME280;13680;49.936;11.344;2023-12-07T03:38:27;96971.38;;;3.41;83.66
25855;BME280;13680;49.936;11.344;2023-12-07T03:40:52;96973.97;;;3.36;83.67
25855;BME280;13680;49.936;11.344;2023-12-07T03:43:19;96980.91;;;3.37;83.88
25855;BME280;13680;49.936;11.344;2023-12-07T03:45:44;96980.81;;;3.32;84.19
25855;BME280;13680;49.936;11.344;2023-12-07T03:48:10;96971.53;;;3.34;84.00
25855;BME280;13680;49.936;11.344;2023-12-07T03:50:35;96977.03;;;3.27;84.38
25855;BME280;13680;49.936;11.344;2023-12-07T03:53:01;96985.84;;;3.28;84.05
25855;BME280;13680;49.936;11.344;2023-12-07T03:55:26;96985.25;;;3.26;84.37
25855;BME280;13680;49.936;11.344;2023-12-07T03:57:51;96981.06;;;3.30;84.18
25855;BME280;13680;49.936;11.344;2023-12-07T04:00:17;96981.38;;;3.34;84.07
25855;BME280;13680;49.936;11.344;2023-12-07T04:02:42;96980.63;;;3.16;84.64
25855;BME280;13680;49.936;11.344;2023-12-07T04:05:07;96974.56;;;3.21;84.47
25855;BME280;13680;49.936;11.344;2023-12-07T04:07:33;96992.19;;;3.27;84.13
25855;BME280;13680;49.936;11.344;2023-12-07T04:09:59;96991.63;;;3.25;84.36
25855;BME280;13680;49.936;11.344;2023-12-07T04:12:24;96980.38;;;3.18;84.17
25855;BME280;13680;49.936;11.344;2023-12-07T04:14:50;96989.16;;;3.18;84.10
25855;BME280;13680;49.936;11.344;2023-12-07T04:17:17;96991.88;;;3.23;84.35
25855;BME280;13680;49.936;11.344;2023-12-07T04:19:42;96989.53;;;3.27;84.02
25855;BME280;13680;49.936;11.344;2023-12-07T04:22:07;96986.25;;;3.20;84.03
25855;BME280;13680;49.936;11.344;2023-12-07T04:24:33;97007.50;;;3.20;84.39
25855;BME280;13680;49.936;11.344;2023-12-07T04:26:58;97002.31;;;3.30;84.00
25855;BME280;13680;49.936;11.344;2023-12-07T04:29:23;97005.47;;;3.27;83.73
25855;BME280;13680;49.936;11.344;2023-12-07T04:31:48;97015.78;;;3.23;83.87
25855;BME280;13680;49.936;11.344;2023-12-07T04:34:14;97010.13;;;3.37;83.57
25855;BME280;13680;49.936;11.344;2023-12-07T04:36:39;97009.81;;;3.33;83.62
25855;BME280;13680;49.936;11.344;2023-12-07T04:39:05;97006.28;;;3.27;83.83
25855;BME280;13680;49.936;11.344;2023-12-07T04:41:30;97025.44;;;3.30;83.83
25855;BME280;13680;49.936;11.344;2023-12-07T04:43:56;97013.53;;;3.32;83.69
25855;BME280;13680;49.936;11.344;2023-12-07T04:46:21;97027.84;;;3.31;83.87
25855;BME280;13680;49.936;11.344;2023-12-07T04:48:47;97019.09;;;3.31;83.92
25855;BME280;13680;49.936;11.344;2023-12-07T04:51:12;97020.84;;;3.25;83.83
25855;BME280;13680;49.936;11.344;2023-12-07T04:53:38;97022.66;;;3.19;83.99
25855;BME280;13680;49.936;11.344;2023-12-07T04:56:03;97016.22;;;3.15;84.38
25855;BME280;13680;49.936;11.344;2023-12-07T04:58:29;97021.75;;;3.14;84.11
25855;BME280;13680;49.936;11.344;2023-12-07T05:00:54;97025.00;;;3.16;84.18
25855;BME280;13680;49.936;11.344;2023-12-07T05:03:20;97024.91;;;3.10;84.50
25855;BME280;13680;49.936;11.344;2023-12-07T05:05:45;97027.06;;;3.14;84.69
25855;BME280;13680;49.936;11.344;2023-12-07T05:08:11;97031.09;;;3.16;84.65
25855;BME280;13680;49.936;11.344;2023-12-07T05:10:36;97022.41;;;3.21;84.26
25855;BME280;13680;49.936;11.344;2023-12-07T05:13:01;97020.47;;;3.16;84.30
25855;BME280;13680;49.936;11.344;2023-12-07T05:15:27;97031.16;;;3.21;84.28
25855;BME280;13680;49.936;11.344;2023-12-07T05:17:52;97031.47;;;3.03;85.02
25855;BME280;13680;49.936;11.344;2023-12-07T05:20:18;97028.97;;;2.96;85.06
25855;BME280;13680;49.936;11.344;2023-12-07T05:22:47;97033.88;;;3.04;84.47
25855;BME280;13680;49.936;11.344;2023-12-07T05:25:12;97029.66;;;3.08;84.38
25855;BME280;13680;49.936;11.344;2023-12-07T05:27:38;97030.81;;;3.13;84.19
25855;BME280;13680;49.936;11.344;2023-12-07T05:30:03;97030.50;;;3.09;84.27
25855;BME280;13680;49.936;11.344;2023-12-07T05:32:29;97028.69;;;3.15;83.84
25855;BME280;13680;49.936;11.344;2023-12-07T05:34:54;97023.69;;;3.18;83.80
25855;BME280;13680;49.936;11.344;2023-12-07T05:37:20;97031.41;;;3.20;83.97
25855;BME280;13680;49.936;11.344;2023-12-07T05:39:45;97033.59;;;3.23;83.72
25855;BME280;13680;49.936;11.344;2023-12-07T05:42:10;97037.38;;;3.27;83.48
25855;BME280;13680;49.936;11.344;2023-12-07T05:44:36;97034.47;;;3.28;83.46
25855;BME280;13680;49.936;11.344;2023-12-07T05:47:01;97033.97;;;3.32;83.32
25855;BME280;13680;49.936;11.344;2023-12-07T05:49:26;97034.22;;;3.30;83.17
25855;BME280;13680;49.936;11.344;2023-12-07T05:51:52;97040.50;;;3.24;83.44
25855;BME280;13680;49.936;11.344;2023-12-07T05:54:18;97041.88;;;3.26;83.14
25855;BME280;13680;49.936;11.344;2023-12-07T05:56:43;97045.34;;;3.27;82.75
25855;BME280;13680;49.936;11.344;2023-12-07T05:59:08;97054.00;;;3.00;82.90
25855;BME280;13680;49.936;11.344;2023-12-07T06:01:33;97050.44;;;3.11;82.60
25855;BME280;13680;49.936;11.344;2023-12-07T06:03:59;97054.41;;;3.09;82.58
25855;BME280;13680;49.936;11.344;2023-12-07T06:06:24;97054.16;;;3.10;82.94
25855;BME280;13680;49.936;11.344;2023-12-07T06:08:50;97051.50;;;3.10;82.29
25855;BME280;13680;49.936;11.344;2023-12-07T06:11:15;97054.53;;;3.02;82.59
25855;BME280;13680;49.936;11.344;2023-12-07T06:13:40;97047.16;;;3.04;82.48
25855;BME280;13680;49.936;11.344;2023-12-07T06:16:06;97051.81;;;2.97;82.51
25855;BME280;13680;49.936;11.344;2023-12-07T06:18:31;97052.88;;;2.96;82.67
25855;BME280;13680;49.936;11.344;2023-12-07T06:20:57;97060.25;;;2.43;84.62
25855;BME280;13680;49.936;11.344;2023-12-07T06:23:22;97052.63;;;2.64;83.94
25855;BME280;13680;49.936;11.344;2023-12-07T06:25:47;97061.72;;;2.51;83.65
25855;BME280;13680;49.936;11.344;2023-12-07T06:28:13;97052.88;;;2.79;83.17
25855;BME280;13680;49.936;11.344;2023-12-07T06:30:38;97063.91;;;2.88;82.78
25855;BME280;13680;49.936;11.344;2023-12-07T06:33:03;97060.09;;;2.50;84.20
25855;BME280;13680;49.936;11.344;2023-12-07T06:35:29;97058.75;;;2.64;83.88
25855;BME280;13680;49.936;11.344;2023-12-07T06:37:55;97058.34;;;2.72;83.11
25855;BME280;13680;49.936;11.344;2023-12-07T06:40:21;97071.88;;;2.71;83.23
25855;BME280;13680;49.936;11.344;2023-12-07T06:42:46;97065.44;;;2.84;82.66
25855;BME280;13680;49.936;11.344;2023-12-07T06:45:13;97077.09;;;2.83;82.53
25855;BME280;13680;49.936;11.344;2023-12-07T06:47:40;97065.50;;;2.89;82.00
25855;BME280;13680;49.936;11.344;2023-12-07T06:50:06;97070.84;;;2.72;82.85
25855;BME280;13680;49.936;11.344;2023-12-07T06:52:38;97067.84;;;2.85;82.66
25855;BME280;13680;49.936;11.344;2023-12-07T06:55:05;97073.00;;;2.92;82.38
25855;BME280;13680;49.936;11.344;2023-12-07T06:57:30;97070.91;;;2.94;82.16
25855;BME280;13680;49.936;11.344;2023-12-07T06:59:55;97069.53;;;2.91;82.22
25855;BME280;13680;49.936;11.344;2023-12-07T07:02:21;97081.84;;;2.81;81.89
25855;BME280;13680;49.936;11.344;2023-12-07T07:04:47;97080.34;;;2.85;81.66
25855;BME280;13680;49.936;11.344;2023-12-07T07:07:14;97073.16;;;2.85;81.91
25855;BME280;13680;49.936;11.344;2023-12-07T07:09:39;97075.91;;;2.90;81.49
25855;BME280;13680;49.936;11.344;2023-12-07T07:12:05;97073.63;;;2.99;81.51
25855;BME280;13680;49.936;11.344;2023-12-07T07:14:30;97079.25;;;2.86;81.25
25855;BME280;13680;49.936;11.344;2023-12-07T07:16:56;97085.31;;;2.98;80.96
25855;BME280;13680;49.936;11.344;2023-12-07T07:19:21;97094.41;;;3.02;80.61
25855;BME280;13680;49.936;11.344;2023-12-07T07:21:46;97092.47;;;2.98;80.85
25855;BME280;13680;49.936;11.344;2023-12-07T07:24:11;97097.13;;;3.07;81.02
25855;BME280;13680;49.936;11.344;2023-12-07T07:26:37;97089.66;;;3.04;81.02
25855;BME280;13680;49.936;11.344;2023-12-07T07:29:03;97100.13;;;2.94;81.88
25855;BME280;13680;49.936;11.344;2023-12-07T07:31:29;97097.88;;;3.03;81.46
25855;BME280;13680;49.936;11.344;2023-12-07T07:33:55;97096.16;;;3.14;81.04
25855;BME280;13680;49.936;11.344;2023-12-07T07:36:20;97102.69;;;3.23;81.15
25855;BME280;13680;49.936;11.344;2023-12-07T07:38:46;97110.50;;;3.30;80.99
25855;BME280;13680;49.936;11.344;2023-12-07T07:41:13;97109.47;;;3.31;80.89
25855;BME280;13680;49.936;11.344;2023-12-07T07:43:38;97106.69;;;3.42;80.94
25855;BME280;13680;49.936;11.344;2023-12-07T07:46:04;97100.97;;;3.34;80.85
25855;BME280;13680;49.936;11.344;2023-12-07T07:48:30;97107.75;;;3.41;80.74
25855;BME280;13680;49.936;11.344;2023-12-07T07:50:55;97113.56;;;3.38;80.25
25855;BME280;13680;49.936;11.344;2023-12-07T07:53:20;97104.44;;;3.51;80.39
25855;BME280;13680;49.936;11.344;2023-12-07T07:55:45;97116.97;;;3.56;80.53
25855;BME280;13680;49.936;11.344;2023-12-07T07:58:11;97116.31;;;3.66;80.57
25855;BME280;13680;49.936;11.344;2023-12-07T08:00:36;97117.81;;;3.79;80.11
25855;BME280;13680;49.936;11.344;2023-12-07T08:03:01;97120.91;;;3.70;79.91
25855;BME280;13680;49.936;11.344;2023-12-07T08:05:27;97118.31;;;3.75;80.16
25855;BME280;13680;49.936;11.344;2023-12-07T08:07:52;97123.44;;;3.82;80.05
25855;BME280;13680;49.936;11.344;2023-12-07T08:10:17;97124.00;;;3.84;79.80
25855;BME280;13680;49.936;11.344;2023-12-07T08:12:43;97130.19;;;3.90;79.87
25855;BME280;13680;49.936;11.344;2023-12-07T08:15:11;97124.94;;;3.95;79.63
25855;BME280;13680;49.936;11.344;2023-12-07T08:17:39;97119.41;;;4.02;79.22
25855;BME280;13680;49.936;11.344;2023-12-07T08:20:09;97119.72;;;4.05;78.73
25855;BME280;13680;49.936;11.344;2023-12-07T08:22:41;97128.84;;;4.09;78.63
25855;BME280;13680;49.936;11.344;2023-12-07T08:25:06;97118.75;;;4.12;78.16
25855;BME280;13680;49.936;11.344;2023-12-07T08:27:32;97122.91;;;4.02;78.08
25855;BME280;13680;49.936;11.344;2023-12-07T08:29:58;97116.25;;;4.27;77.39
25855;BME280;13680;49.936;11.344;2023-12-07T08:32:23;97115.22;;;4.06;76.76
25855;BME280;13680;49.936;11.344;2023-12-07T08:34:51;97113.88;;;4.03;76.50
25855;BME280;13680;49.936;11.344;2023-12-07T08:37:17;97125.63;;;4.07;76.80
25855;BME280;13680;49.936;11.344;2023-12-07T08:39:42;97127.94;;;4.26;77.34
25855;BME280;13680;49.936;11.344;2023-12-07T08:42:08;97123.56;;;4.37;76.95
25855;BME280;13680;49.936;11.344;2023-12-07T08:44:33;97123.97;;;4.51;76.65
25855;BME280;13680;49.936;11.344;2023-12-07T08:46:59;97126.81;;;4.71;76.27
25855;BME280;13680;49.936;11.344;2023-12-07T08:49:24;97122.16;;;4.84;74.97
25855;BME280;13680;49.936;11.344;2023-12-07T08:51:49;97126.97;;;4.87;74.88
25855;BME280;13680;49.936;11.344;2023-12-07T08:54:14;97133.69;;;4.95;74.70
25855;BME280;13680;49.936;11.344;2023-12-07T08:56:44;97132.16;;;5.04;74.53
25855;BME280;13680;49.936;11.344;2023-12-07T08:59:09;97130.31;;;5.04;73.90
25855;BME280;13680;49.936;11.344;2023-12-07T09:01:34;97129.84;;;5.13;74.36
25855;BME280;13680;49.936;11.344;2023-12-07T09:04:00;97133.31;;;5.13;73.56
25855;BME280;13680;49.936;11.344;2023-12-07T09:06:25;97136.56;;;5.20;73.14
25855;BME280;13680;49.936;11.344;2023-12-07T09:08:50;97132.84;;;4.89;72.78
25855;BME280;13680;49.936;11.344;2023-12-07T09:11:16;97138.28;;;4.99;73.29
25855;BME280;13680;49.936;11.344;2023-12-07T09:13:41;97134.25;;;4.97;72.38
25855;BME280;13680;49.936;11.344;2023-12-07T09:16:06;97135.91;;;5.03;72.33
25855;BME280;13680;49.936;11.344;2023-12-07T09:18:33;97136.69;;;5.03;72.55
25855;BME280;13680;49.936;11.344;2023-12-07T09:20:59;97141.44;;;4.69;72.62
25855;BME280;13680;49.936;11.344;2023-12-07T09:23:25;97139.53;;;4.64;73.27
25855;BME280;13680;49.936;11.344;2023-12-07T09:25:51;97147.97;;;4.83;73.26
25855;BME280;13680;49.936;11.344;2023-12-07T09:28:16;97141.63;;;4.57;73.10
25855;BME280;13680;49.936;11.344;2023-12-07T09:30:41;97136.25;;;4.84;72.95
25855;BME280;13680;49.936;11.344;2023-12-07T09:33:07;97139.66;;;5.07;72.81
25855;BME280;13680;49.936;11.344;2023-12-07T09:35:32;97142.34;;;5.07;71.35
25855;BME280;13680;49.936;11.344;2023-12-07T09:37:59;97137.13;;;4.90;71.45
25855;BME280;13680;49.936;11.344;2023-12-07T09:40:24;97146.91;;;5.12;70.44
25855;BME280;13680;49.936;11.344;2023-12-07T09:42:51;97139.56;;;5.29;70.44
25855;BME280;13680;49.936;11.344;2023-12-07T09:45:18;97134.63;;;5.48;69.89
25855;BME280;13680;49.936;11.344;2023-12-07T09:47:53;97131.75;;;4.85;69.99
25855;BME280;13680;49.936;11.344;2023-12-07T09:50:23;97139.50;;;5.19;69.08
25855;BME280;13680;49.936;11.344;2023-12-07T09:52:50;97130.88;;;5.06;69.15
25855;BME280;13680;49.936;11.344;2023-12-07T09:55:18;97123.97;;;5.11;69.45
25855;BME280;13680;49.936;11.344;2023-12-07T09:57:45;97132.56;;;4.58;69.57
25855;BME280;13680;49.936;11.344;2023-12-07T10:00:12;97128.97;;;4.20;70.47
25855;BME280;13680;49.936;11.344;2023-12-07T10:02:41;97125.53;;;4.24;71.19
25855;BME280;13680;49.936;11.344;2023-12-07T10:05:11;97116.63;;;4.63;69.97
25855;BME280;13680;49.936;11.344;2023-12-07T10:07:43;97113.50;;;4.71;69.36
25855;BME280;13680;49.936;11.344;2023-12-07T10:10:09;97109.78;;;4.72;69.34
25855;BME280;13680;49.936;11.344;2023-12-07T10:12:44;97110.09;;;4.76;68.33
25855;BME280;13680;49.936;11.344;2023-12-07T10:15:16;97100.06;;;4.88;68.90
25855;BME280;13680;49.936;11.344;2023-12-07T10:20:17;97108.88;;;4.89;68.47
25855;BME280;13680;49.936;11.344;2023-12-07T10:22:44;97102.59;;;5.05;68.58
25855;BME280;13680;49.936;11.344;2023-12-07T10:25:10;97106.44;;;5.20;68.28
25855;BME280;13680;49.936;11.344;2023-12-07T10:27:36;97107.94;;;5.05;68.06
25855;BME280;13680;49.936;11.344;2023-12-07T10:30:04;97097.88;;;5.18;67.41
25855;BME280;13680;49.936;11.344;2023-12-07T10:32:30;97100.06;;;5.21;68.14
25855;BME280;13680;49.936;11.344;2023-12-07T10:34:56;97108.97;;;5.42;68.12
25855;BME280;13680;49.936;11.344;2023-12-07T10:37:23;97112.47;;;5.43;68.15
25855;BME280;13680;49.936;11.344;2023-12-07T10:39:49;97097.09;;;5.60;67.66
25855;BME280;13680;49.936;11.344;2023-12-07T10:42:16;97100.00;;;5.58;67.16
25855;BME280;13680;49.936;11.344;2023-12-07T10:44:42;97099.53;;;5.24;66.97
25855;BME280;13680;49.936;11.344;2023-12-07T10:47:11;97099.34;;;4.98;67.43
25855;BME280;13680;49.936;11.344;2023-12-07T10:49:40;97099.81;;;4.90;68.08
25855;BME280;13680;49.936;11.344;2023-12-07T10:52:12;97099.09;;;5.00;68.62
25855;BME280;13680;49.936;11.344;2023-12-07T10:55:00;97091.63;;;4.97;68.30
25855;BME280;13680;49.936;11.344;2023-12-07T10:57:29;97104.41;;;5.00;68.17
25855;BME280;13680;49.936;11.344;2023-12-07T10:59:55;97104.72;;;5.03;68.34
25855;BME280;13680;49.936;11.344;2023-12-07T11:02:22;97099.91;;;5.00;68.69
25855;BME280;13680;49.936;11.344;2023-12-07T11:04:48;97101.25;;;5.03;68.88
25855;BME280;13680;49.936;11.344;2023-12-07T11:07:18;97095.69;;;5.10;68.38
25855;BME280;13680;49.936;11.344;2023-12-07T11:09:47;97097.88;;;5.18;68.70
25855;BME280;13680;49.936;11.344;2023-12-07T11:12:28;97104.06;;;5.23;68.75
25855;BME280;13680;49.936;11.344;2023-12-07T11:14:56;97090.31;;;5.42;68.58
25855;BME280;13680;49.936;11.344;2023-12-07T11:17:21;97093.00;;;5.47;68.56
25855;BME280;13680;49.936;11.344;2023-12-07T11:19:47;97083.75;;;5.55;68.21
25855;BME280;13680;49.936;11.344;2023-12-07T11:22:13;97082.13;;;5.54;68.41
25855;BME280;13680;49.936;11.344;2023-12-07T11:24:59;97087.97;;;5.51;68.18
25855;BME280;13680;49.936;11.344;2023-12-07T11:27:29;97085.84;;;5.53;68.56
25855;BME280;13680;49.936;11.344;2023-12-07T11:29:58;97083.75;;;5.55;68.73
25855;BME280;13680;49.936;11.344;2023-12-07T11:32:26;97074.19;;;5.64;69.19
25855;BME280;13680;49.936;11.344;2023-12-07T11:34:52;97070.53;;;5.81;68.31
25855;BME280;13680;49.936;11.344;2023-12-07T11:37:17;97068.34;;;5.78;68.01
25855;BME280;13680;49.936;11.344;2023-12-07T11:39:43;97062.19;;;5.67;68.57
25855;BME280;13680;49.936;11.344;2023-12-07T11:42:12;97060.25;;;6.15;68.01
25855;BME280;13680;49.936;11.344;2023-12-07T11:44:41;97052.84;;;6.38;66.31
25855;BME280;13680;49.936;11.344;2023-12-07T11:47:07;97053.13;;;7.09;64.55
25855;BME280;13680;49.936;11.344;2023-12-07T11:49:34;97051.75;;;8.08;62.51
25855;BME280;13680;49.936;11.344;2023-12-07T11:51:59;97038.84;;;8.65;59.52
25855;BME280;13680;49.936;11.344;2023-12-07T11:54:26;97037.47;;;9.31;57.75
25855;BME280;13680;49.936;11.344;2023-12-07T11:56:55;97025.13;;;9.30;55.86
25855;BME280;13680;49.936;11.344;2023-12-07T11:59:22;97021.78;;;8.85;57.54
25855;BME280;13680;49.936;11.344;2023-12-07T12:01:48;97023.28;;;8.22;58.91
25855;BME280;13680;49.936;11.344;2023-12-07T12:04:17;97022.50;;;8.22;58.52
25855;BME280;13680;49.936;11.344;2023-12-07T12:06:46;97034.81;;;7.62;58.96
25855;BME280;13680;49.936;11.344;2023-12-07T12:09:13;97018.75;;;7.62;59.43
25855;BME280;13680;49.936;11.344;2023-12-07T12:11:44;97008.06;;;7.52;59.51
25855;BME280;13680;49.936;11.344;2023-12-07T12:14:09;97008.41;;;7.40;59.84
25855;BME280;13680;49.936;11.344;2023-12-07T12:16:35;97003.84;;;7.35;59.67
25855;BME280;13680;49.936;11.344;2023-12-07T12:19:00;97005.00;;;7.03;59.93
25855;BME280;13680;49.936;11.344;2023-12-07T12:21:25;97000.97;;;7.11;60.54
25855;BME280;13680;49.936;11.344;2023-12-07T12:23:51;97001.53;;;6.98;61.42
25855;BME280;13680;49.936;11.344;2023-12-07T12:26:16;97003.97;;;6.84;61.42
25855;BME280;13680;49.936;11.344;2023-12-07T12:28:43;96994.84;;;6.69;61.29
25855;BME280;13680;49.936;11.344;2023-12-07T12:31:10;96999.16;;;6.55;61.58
25855;BME280;13680;49.936;11.344;2023-12-07T12:33:37;96998.06;;;6.35;61.68
25855;BME280;13680;49.936;11.344;2023-12-07T12:36:04;97004.19;;;6.20;62.25
25855;BME280;13680;49.936;11.344;2023-12-07T12:38:31;97002.81;;;6.02;63.10
25855;BME280;13680;49.936;11.344;2023-12-07T12:40:57;97001.09;;;5.70;64.68
25855;BME280;13680;49.936;11.344;2023-12-07T12:43:23;97011.63;;;5.39;65.52
25855;BME280;13680;49.936;11.344;2023-12-07T12:45:49;97016.41;;;5.32;65.65
25855;BME280;13680;49.936;11.344;2023-12-07T12:48:14;97012.59;;;5.23;66.80
25855;BME280;13680;49.936;11.344;2023-12-07T12:50:41;97006.06;;;5.46;66.95
25855;BME280;13680;49.936;11.344;2023-12-07T12:53:10;97009.44;;;5.84;66.45
25855;BME280;13680;49.936;11.344;2023-12-07T12:55:41;96997.75;;;6.06;66.09
25855;BME280;13680;49.936;11.344;2023-12-07T12:58:08;97001.22;;;6.01;65.64